Whiteclay, Nebraska
Current Conditions -  °F | °C
As of 12:52 PM on Sunday 23 Nov 2014 (Local Time) from KIEN Reporting Station
Overcast Overcast  
Wind Chill: 34°   Ceiling: 6500
Heat Index: 43°   Visibility: 10mi
Dew Point: 19°   Wind: 23mph
Humidity: 38%   Direction: 300°WNW
Pressure: 29.71"   Gusts: 31mph
Location:  43°N, 102.56°W
Report Text: KIEN 231952Z AUTO 30020G27KT 10SM OVC065 06/M07 A2971 RMK AO2 PK WND 31028/1931 SLP070 T00611072
Loading
Personal Weather Stations






























Interactive Weather Map New forecast layout! Learn more

10-Day Weather Forecast

Advertisements
Track Severe Weather on mobile